aviador You're here:

WAMM Decoded Metar

MANADO in INDONESIA
Report Time2018-01-22 20:00:00
UTC Time2018-01-22 20:06:35
Flight Rules vfr VFR
Wind090° at 01 kt
W.Decomp.*RWY 36: 1.0 kt RCW
W.Rank090° ranks 26
Current wind is below 090° avg. (2.7)
Visibility9000 m
Phenomena:N/A
Clouds:Scattered 020 Hf
CeilingNone
Temp24°C (ISA +10)
Dew Point24°C (100% RH)
QNH1006 hPa
Density Alt1,995 ft
Elevation262 ft
Report Wrong Elevation
Raw Report
METAR WAMM 222000Z 09001KT 9000 SCT020 24/24 Q1006 NOSIG=####018000084####
SALI20 GLRB 222000

Extra information for WAMM:More info

Metar Taf Metar & Taf Last 4 Metars F.Rules Stats Wind Profile Meteogram Temp Stats Airport Information Weather charts Add Link Nearby VenuesMetar ALERT Operation Metar Decoded Social comments